Stations météo

réclame
Mon MeteoGroup
Zugspitze, Allemagne (10961): Température de l'air & dewpoint: 10.07.2018 00:00:00 - 16.07.2018 00:00:00 (CEST)Zugspitze, Allemagne (10961): Vitesse du vent & gusts: 10.07.2018 00:00:00 - 16.07.2018 00:00:00 (CEST)Zugspitze, Allemagne (10961): Direction du vent: 10.07.2018 00:00:00 - 16.07.2018 00:00:00 (CEST)Zugspitze, Allemagne (10961): Ensoleillement: 10.07.2018 00:00:00 - 16.07.2018 00:00:00 (CEST)
Date & Time tt [°C] td [°C] ff [km/h] ff [knt] fx [km/h] fx [knt] dd sd [min]
16.07.2018 00:00:00 2,2 -0,5 20 11 32 18 NNW 0
15.07.2018 23:00:00 2,5 -1,3 18 10 44 24 NNW 0
15.07.2018 22:00:00 0,9 -0,1 25 14 44 24 N 0
15.07.2018 21:00:00 2,0 1,6 19 10 41 22 N 0
15.07.2018 20:00:00 3,8 3,6 7 4 24 13 WNW 0
15.07.2018 19:00:00 4,3 3,7 16 8 27 14 WSW 5
15.07.2018 18:00:00 4,6 2,1 12 7 25 13 SW 13
15.07.2018 17:00:00 4,5 3,5 8 5 17 9 NW 11
15.07.2018 16:00:00 6,2 2,3 11 6 21 11 W 39
15.07.2018 15:00:00 6,5 3,4 12 7 21 12 S 33
15.07.2018 14:00:00 5,3 3,5 11 6 22 12 SE 6
15.07.2018 13:00:00 5,4 2,6 8 5 21 11 SSE 37
15.07.2018 12:00:00 4,8 2,6 12 7 22 12 SSE 52
15.07.2018 11:00:00 4,4 2,0 5 3 10 5 S 9
15.07.2018 10:00:00 2,8 0,8 4 2 23 13 NNE 0
15.07.2018 09:00:00 2,1 -0,7 8 5 25 14 N 0
15.07.2018 08:00:00 1,8 0,9 16 8 - - N 0
15.07.2018 07:00:00 1,6 1,4 26 14 43 23 N 0
15.07.2018 06:00:00 1,8 1,8 16 9 45 25 N 0
15.07.2018 05:00:00 3,3 3,2 10 6 16 9 SSE 0
15.07.2018 04:00:00 3,2 3,1 11 6 20 11 NNW 0
15.07.2018 03:00:00 3,1 2,8 12 7 22 12 NNW 0
15.07.2018 02:00:00 3,1 2,9 19 10 27 14 NNW 0
15.07.2018 01:00:00 3,3 3,0 17 9 26 14 N 0
15.07.2018 00:00:00 3,8 3,6 10 6 22 12 N 0
14.07.2018 23:00:00 4,0 3,6 13 7 32 17 W 0
14.07.2018 22:00:00 4,1 3,5 19 10 29 16 W 0
14.07.2018 21:00:00 4,7 4,3 9 5 21 11 NW 16
14.07.2018 20:00:00 5,8 4,4 9 5 21 12 NW 32
14.07.2018 19:00:00 4,8 4,3 12 7 28 15 N 18
14.07.2018 18:00:00 4,7 4,2 16 9 41 22 N 2
14.07.2018 17:00:00 4,9 4,6 20 11 37 20 NNW 1
14.07.2018 16:00:00 5,1 4,8 15 8 33 18 NNW 4
14.07.2018 15:00:00 5,0 4,2 9 5 23 13 WNW 2
14.07.2018 14:00:00 5,4 3,7 9 5 25 13 W 16
14.07.2018 13:00:00 4,4 2,9 13 7 40 22 NNW 27
14.07.2018 12:00:00 4,6 1,9 18 10 37 20 W 24
14.07.2018 11:00:00 3,6 2,0 16 8 32 17 W 20
14.07.2018 10:00:00 3,7 2,4 22 12 36 19 WSW 24
14.07.2018 09:00:00 3,1 1,9 28 15 44 24 W 5
14.07.2018 08:00:00 2,4 1,9 11 6 46 25 WNW 0
14.07.2018 07:00:00 2,5 2,2 15 8 27 14 NW 0
14.07.2018 06:00:00 2,8 1,6 15 8 29 16 NNW 0
14.07.2018 05:00:00 3,0 0,4 17 9 28 15 NNW 0
14.07.2018 04:00:00 3,0 0,2 13 7 27 15 W 0
14.07.2018 03:00:00 2,8 -0,1 11 6 29 15 NW 0
14.07.2018 02:00:00 2,8 0,2 15 8 35 19 NW 0
14.07.2018 01:00:00 2,7 1,4 16 9 29 16 NW 0
14.07.2018 00:00:00 2,7 1,3 13 7 32 17 NW 0
13.07.2018 23:00:00 2,8 1,1 14 8 36 19 WNW 0
13.07.2018 22:00:00 3,1 0,9 18 10 30 16 W 0
13.07.2018 21:00:00 3,1 2,7 16 9 23 13 NNW 4
13.07.2018 20:00:00 3,9 3,4 11 6 48 26 NNW 20
13.07.2018 19:00:00 4,2 2,1 16 9 39 21 NW 41
13.07.2018 18:00:00 4,9 2,6 12 6 23 13 W 27
13.07.2018 17:00:00 4,5 3,5 8 4 18 10 N 8
13.07.2018 16:00:00 4,3 2,9 6 4 22 12 NNE 19
13.07.2018 15:00:00 4,5 2,9 8 5 22 12 N 24
13.07.2018 14:00:00 4,1 1,5 8 5 22 12 WSW 29
13.07.2018 13:00:00 4,0 0,3 9 5 24 13 W 53
13.07.2018 12:00:00 4,4 -0,9 8 5 19 11 WSW 60
13.07.2018 11:00:00 4,3 -1,7 9 5 18 10 SSW 60
13.07.2018 10:00:00 3,3 -1,2 6 3 13 7 SSW 55
13.07.2018 09:00:00 0,8 -1,9 8 4 19 10 W 51
13.07.2018 08:00:00 0,3 -0,5 13 7 23 12 WNW 7
13.07.2018 07:00:00 0,2 0,0 18 10 27 14 NNW 0
13.07.2018 06:00:00 -0,2 -1,0 12 6 24 13 NW 0
13.07.2018 05:00:00 0,0 -0,4 13 7 25 13 NW 0
13.07.2018 04:00:00 0,0 -0,9 14 8 24 13 WNW 0
13.07.2018 03:00:00 0,1 -0,9 18 10 27 15 NNW 0
13.07.2018 02:00:00 0,1 -2,1 21 11 37 20 NNW 0
13.07.2018 01:00:00 0,5 -0,2 25 13 38 20 NNW 0
13.07.2018 00:00:00 0,6 -1,4 22 12 38 20 W 0
12.07.2018 23:00:00 0,6 -1,1 22 12 42 23 W 0
12.07.2018 22:00:00 1,5 1,5 19 10 34 19 WNW 4
12.07.2018 21:00:00 2,1 2,0 22 12 36 19 W 25
12.07.2018 20:00:00 2,6 2,4 16 9 30 16 NW 17
12.07.2018 19:00:00 3,2 2,8 15 8 26 14 NW 13
12.07.2018 18:00:00 3,2 2,8 17 9 38 20 NW 22
12.07.2018 17:00:00 3,7 2,7 8 5 26 14 W 8
12.07.2018 16:00:00 4,3 2,3 13 7 34 18 W 52
12.07.2018 15:00:00 4,7 0,5 15 8 29 16 SW 59
12.07.2018 14:00:00 3,6 -0,3 18 10 35 19 WSW 60
12.07.2018 13:00:00 2,8 -4,2 24 13 43 23 WSW 60
12.07.2018 12:00:00 2,5 -7,6 23 12 43 23 WSW 60
12.07.2018 11:00:00 2,3 -9,5 26 14 40 22 WSW 60
12.07.2018 10:00:00 1,9 -9,2 27 14 54 29 WSW 60
12.07.2018 09:00:00 1,5 -9,9 29 16 45 24 WSW 60
12.07.2018 08:00:00 1,0 -9,4 31 17 57 31 WSW 60
12.07.2018 07:00:00 0,5 -8,7 41 22 63 34 WSW 51
12.07.2018 06:00:00 -0,6 -4,2 42 23 58 31 WSW 13
12.07.2018 05:00:00 -1,0 -4,2 34 18 50 27 W 0
12.07.2018 04:00:00 -1,3 -4,0 22 12 56 30 WNW 0
12.07.2018 03:00:00 -1,7 -4,8 44 24 68 37 WSW 0
12.07.2018 02:00:00 -1,9 -3,8 42 23 63 34 W 0
12.07.2018 01:00:00 -2,5 -3,3 47 26 69 37 WSW 0
12.07.2018 00:00:00 -0,9 -0,9 39 21 54 29 W 0
11.07.2018 23:00:00 -0,9 -1,0 38 20 61 33 W 0
11.07.2018 22:00:00 -0,7 -0,7 24 13 42 23 WNW 1
11.07.2018 21:00:00 -0,6 -0,6 31 17 49 26 WNW 5
11.07.2018 20:00:00 0,0 0,0 24 13 39 21 NNW 0
11.07.2018 19:00:00 0,4 0,2 19 11 40 22 NNW 0
11.07.2018 18:00:00 0,6 0,4 24 13 38 20 NNW 1
11.07.2018 17:00:00 0,3 0,2 19 11 40 21 NNW 0
11.07.2018 16:00:00 0,6 0,4 21 12 44 24 NNW 4
11.07.2018 15:00:00 0,4 0,2 22 12 38 21 NW 9
11.07.2018 14:00:00 0,0 -0,1 16 9 43 23 NW 21
11.07.2018 13:00:00 -0,1 -0,2 29 16 45 24 W 8
11.07.2018 12:00:00 -0,2 -0,5 34 18 54 29 W 7
11.07.2018 11:00:00 -0,4 -0,4 18 10 41 22 W 0
11.07.2018 10:00:00 -0,2 -0,2 21 11 51 27 WNW 0
11.07.2018 09:00:00 -0,3 -0,3 26 14 61 33 NW 0
11.07.2018 08:00:00 -0,7 -0,7 34 19 58 31 W 0
11.07.2018 07:00:00 -0,3 -0,3 27 14 59 32 NW 0
11.07.2018 06:00:00 -0,1 -0,1 23 12 50 27 WNW 0
11.07.2018 05:00:00 -0,1 -0,2 27 14 52 28 NW 0
11.07.2018 04:00:00 0,4 0,3 17 9 49 26 N 0
11.07.2018 03:00:00 0,1 0,1 19 10 49 27 NW 0
11.07.2018 02:00:00 0,1 0,0 26 14 54 29 NW 0
11.07.2018 01:00:00 0,8 0,7 22 12 48 26 NNW 0
11.07.2018 00:00:00 0,3 0,3 26 14 54 29 NW 0
10.07.2018 23:00:00 0,5 0,5 26 14 58 31 W 0
10.07.2018 22:00:00 0,6 0,5 22 12 52 28 NW 0
10.07.2018 21:00:00 0,4 0,2 32 17 65 35 NW 26
10.07.2018 20:00:00 0,5 0,5 29 16 55 30 NNW 7
10.07.2018 19:00:00 0,6 0,5 36 19 63 34 NW 0
10.07.2018 18:00:00 1,5 1,4 34 19 63 34 NW 0
10.07.2018 17:00:00 2,4 2,3 24 13 37 20 NNW 0
10.07.2018 16:00:00 3,2 3,1 19 10 44 24 NNW 0
10.07.2018 15:00:00 3,1 2,9 21 11 41 22 NNW 0
10.07.2018 14:00:00 2,7 2,5 20 11 48 26 NNW 0
10.07.2018 13:00:00 2,7 2,7 15 8 43 23 NW 3
10.07.2018 12:00:00 2,4 2,1 22 12 44 24 W 7
10.07.2018 11:00:00 2,4 1,0 28 15 39 21 WSW 9
10.07.2018 10:00:00 2,1 1,5 22 12 42 23 W 15
10.07.2018 09:00:00 1,9 0,9 27 14 41 22 WSW 3
10.07.2018 08:00:00 1,5 1,2 14 8 36 19 NW 0
10.07.2018 07:00:00 1,4 1,2 16 9 34 18 W 0
10.07.2018 06:00:00 1,2 0,7 17 9 38 21 NNW 0
10.07.2018 05:00:00 1,5 0,1 29 15 41 22 WSW 0
10.07.2018 04:00:00 1,6 -0,1 28 15 51 28 W 0
10.07.2018 03:00:00 1,8 1,6 27 15 36 20 W 0
10.07.2018 02:00:00 2,2 2,0 16 9 29 16 W 0
10.07.2018 01:00:00 2,3 2,1 14 7 25 13 WNW 0
10.07.2018 00:00:00 2,2 2,0 15 8 22 12 NW 0

tt = Température de l'air
td = dewpoint
ff = Vitesse du vent
fx = gusts
dd = Direction du vent
sd = Ensoleillement

stations d'obs. à proximité